createdAt,value
2022-10-31T00:04:51.344Z,16.30
2022-10-31T00:09:55.108Z,15.85
2022-10-31T00:15:00.263Z,16.92
2022-10-31T00:20:04.146Z,15.68
2022-10-31T00:25:08.253Z,17.38
2022-10-31T00:30:14.286Z,15.45
2022-10-31T00:35:18.992Z,14.95
2022-10-31T00:40:22.845Z,14.38
2022-10-31T00:45:28.065Z,14.18
2022-10-31T00:50:31.875Z,14.03
2022-10-31T00:55:36.825Z,13.07
2022-10-31T01:00:42.127Z,13.55
2022-10-31T01:05:45.985Z,12.50
2022-10-31T01:11:00.762Z,12.90
2022-10-31T01:16:07.761Z,13.23
2022-10-31T01:21:14.221Z,14.00
2022-10-31T01:26:19.454Z,13.82
2022-10-31T01:31:26.390Z,13.57
2022-10-31T01:36:31.783Z,14.23
2022-10-31T01:41:37.289Z,13.90
2022-10-31T01:46:45.973Z,13.27
2022-10-31T01:51:52.441Z,13.82
2022-10-31T01:56:58.011Z,13.63
2022-10-31T02:02:03.381Z,14.77
2022-10-31T02:07:10.518Z,13.70
2022-10-31T02:12:14.652Z,13.63
2022-10-31T02:17:19.890Z,14.30
2022-10-31T02:22:29.246Z,13.80
2022-10-31T02:27:53.673Z,13.60
2022-10-31T02:33:06.257Z,14.50
2022-10-31T02:38:19.830Z,15.15
2022-10-31T02:43:28.894Z,14.27
2022-10-31T02:48:36.573Z,14.63
2022-10-31T02:53:40.801Z,14.80
2022-10-31T02:58:49.908Z,14.32
2022-10-31T03:04:05.396Z,14.45
2022-10-31T03:09:13.005Z,14.05
2022-10-31T03:14:22.178Z,13.77
2022-10-31T03:19:36.401Z,13.57
2022-10-31T03:24:41.919Z,13.13
2022-10-31T03:29:46.861Z,12.20
2022-10-31T03:39:57.750Z,13.07
2022-10-31T03:45:04.908Z,12.80
2022-10-31T03:50:11.598Z,12.70
2022-10-31T03:55:19.923Z,13.50
2022-10-31T04:00:24.041Z,12.32
2022-10-31T04:05:32.935Z,13.73
2022-10-31T04:10:39.739Z,13.63
2022-10-31T04:15:44.642Z,13.50
2022-10-31T04:20:51.069Z,13.57
2022-10-31T04:25:54.962Z,12.07
2022-10-31T04:30:59.517Z,13.82
2022-10-31T04:36:09.070Z,13.07
2022-10-31T04:46:29.078Z,13.90
2022-10-31T04:51:36.173Z,14.32
2022-10-31T04:56:40.044Z,12.73
2022-10-31T05:01:51.501Z,13.73
2022-10-31T05:07:02.640Z,15.35
2022-10-31T05:12:06.601Z,16.60
2022-10-31T05:17:46.083Z,16.90
2022-10-31T05:23:09.710Z,15.20
2022-10-31T05:28:13.564Z,11.70
2022-10-31T05:33:17.403Z,14.20
2022-10-31T05:38:41.237Z,16.65
2022-10-31T05:43:59.147Z,16.55
2022-10-31T05:49:06.189Z,15.07
2022-10-31T05:54:29.985Z,15.82
2022-10-31T05:59:33.922Z,14.73
2022-10-31T06:04:38.926Z,12.25
2022-10-31T06:09:44.211Z,11.93
2022-10-31T06:14:48.631Z,13.70
2022-10-31T06:19:52.805Z,12.43
2022-10-31T06:25:00.666Z,13.10
2022-10-31T06:30:08.493Z,11.30
2022-10-31T06:35:14.161Z,11.25
2022-10-31T06:40:20.689Z,11.00
2022-10-31T06:45:42.754Z,11.63
2022-10-31T06:50:57.104Z,11.98
2022-10-31T06:56:05.102Z,11.70
2022-10-31T07:01:14.389Z,9.77
2022-10-31T07:06:18.518Z,8.73
2022-10-31T07:11:23.833Z,8.05
2022-10-31T07:16:27.731Z,7.70
2022-10-31T07:21:31.895Z,7.05
2022-10-31T07:26:37.184Z,7.35
2022-10-31T07:31:41.288Z,7.60
2022-10-31T07:36:53.144Z,7.40
2022-10-31T07:42:00.882Z,6.75
2022-10-31T07:47:05.574Z,7.00
2022-10-31T07:52:27.946Z,7.00
2022-10-31T07:57:59.871Z,7.35
2022-10-31T08:03:06.849Z,6.03
2022-10-31T08:08:33.388Z,5.77
2022-10-31T08:13:41.305Z,9.73
2022-10-31T08:18:46.651Z,6.40
2022-10-31T08:29:00.541Z,6.53
2022-10-31T08:34:09.178Z,5.82
2022-10-31T08:39:38.961Z,6.82
2022-10-31T08:44:44.318Z,6.22
2022-10-31T08:49:48.238Z,6.47
2022-10-31T08:54:52.328Z,7.05
2022-10-31T09:00:36.865Z,7.68
2022-10-31T09:05:50.189Z,7.15
2022-10-31T09:10:54.483Z,8.60
2022-10-31T09:16:19.595Z,7.95
2022-10-31T09:21:23.418Z,8.38
2022-10-31T09:26:27.598Z,7.80
2022-10-31T09:31:36.982Z,8.43
2022-10-31T09:37:05.384Z,7.90
2022-10-31T09:42:33.731Z,8.02
2022-10-31T09:47:49.966Z,7.85
2022-10-31T09:53:13.298Z,8.27
2022-10-31T09:58:22.230Z,8.77
2022-10-31T10:03:34.249Z,9.38
2022-10-31T10:08:47.373Z,7.88
2022-10-31T10:14:26.469Z,8.02
2022-10-31T10:19:47.065Z,8.55
2022-10-31T10:25:04.453Z,8.23
2022-10-31T10:30:16.438Z,8.52
2022-10-31T10:35:25.918Z,7.13
2022-10-31T10:40:30.158Z,7.72
2022-10-31T10:45:51.349Z,8.20
2022-10-31T10:50:56.555Z,8.57
2022-10-31T10:56:11.631Z,8.32
2022-10-31T11:06:27.510Z,7.05
2022-10-31T11:11:32.898Z,7.10
2022-10-31T11:16:41.243Z,8.35
2022-10-31T11:21:54.367Z,7.68
2022-10-31T11:27:14.409Z,9.00
2022-10-31T11:32:21.795Z,7.28
2022-10-31T11:37:28.311Z,7.63
2022-10-31T11:42:38.283Z,7.53
2022-10-31T11:47:44.410Z,7.65
2022-10-31T11:52:50.024Z,7.22
2022-10-31T11:57:54.710Z,7.35
2022-10-31T12:03:14.693Z,6.50
2022-10-31T12:08:19.892Z,6.88
2022-10-31T12:13:34.710Z,6.80
2022-10-31T12:18:48.655Z,8.30
2022-10-31T12:24:02.242Z,7.23
2022-10-31T12:29:19.775Z,7.40
2022-10-31T12:34:42.680Z,6.97
2022-10-31T12:40:04.233Z,7.90
2022-10-31T12:45:23.640Z,8.02
2022-10-31T12:50:36.168Z,8.57
2022-10-31T12:55:46.844Z,7.72
2022-10-31T13:00:54.128Z,7.13
2022-10-31T13:06:01.582Z,7.57
2022-10-31T13:11:10.418Z,7.97
2022-10-31T13:16:16.850Z,6.47
2022-10-31T13:21:23.551Z,8.20
2022-10-31T13:26:39.347Z,7.10
2022-10-31T13:31:43.806Z,7.90
2022-10-31T13:36:51.769Z,7.65
2022-10-31T13:42:02.156Z,7.85
2022-10-31T13:47:06.063Z,8.05
2022-10-31T13:52:25.946Z,8.32
2022-10-31T13:57:34.976Z,8.25
2022-10-31T14:02:39.180Z,8.20
2022-10-31T14:07:45.472Z,8.77
2022-10-31T14:12:51.482Z,7.88
2022-10-31T14:17:56.880Z,8.48
2022-10-31T14:23:00.841Z,9.18
2022-10-31T14:28:21.106Z,9.10
2022-10-31T14:33:26.594Z,9.68
2022-10-31T14:38:38.914Z,8.27
2022-10-31T14:44:19.331Z,7.97
2022-10-31T14:49:33.819Z,9.88
2022-10-31T14:54:39.875Z,9.43
2022-10-31T14:59:50.844Z,9.98
2022-10-31T15:04:56.933Z,8.93
2022-10-31T15:10:01.909Z,9.20
2022-10-31T15:15:17.872Z,9.37
2022-10-31T15:25:27.539Z,10.40
2022-10-31T15:30:32.712Z,10.52
2022-10-31T15:35:36.573Z,10.63
2022-10-31T15:40:40.623Z,9.88
2022-10-31T15:45:45.866Z,10.63
2022-10-31T15:50:51.726Z,11.85
2022-10-31T15:55:59.858Z,10.68
2022-10-31T16:01:06.941Z,10.70
2022-10-31T16:06:22.429Z,11.07
2022-10-31T16:11:30.074Z,12.40
2022-10-31T16:16:36.818Z,12.18
2022-10-31T16:21:40.965Z,13.40
2022-10-31T16:26:50.031Z,15.25
2022-10-31T16:31:55.216Z,14.75
2022-10-31T16:36:58.990Z,13.90
2022-10-31T16:42:02.857Z,17.52
2022-10-31T16:47:15.829Z,20.45
2022-10-31T16:52:19.945Z,19.90
2022-10-31T16:57:28.982Z,19.88
2022-10-31T17:02:34.248Z,16.38
2022-10-31T17:07:38.093Z,18.00
2022-10-31T17:12:44.500Z,13.20
2022-10-31T17:17:49.967Z,17.80
2022-10-31T17:22:53.743Z,21.08
2022-10-31T17:27:57.552Z,18.75
2022-10-31T17:33:03.034Z,15.68
2022-10-31T17:38:07.038Z,15.65
2022-10-31T17:43:11.756Z,15.30
2022-10-31T17:48:16.916Z,16.83
2022-10-31T17:53:20.746Z,18.60
2022-10-31T17:58:24.522Z,19.98
2022-10-31T18:03:29.786Z,20.02
2022-10-31T18:08:35.014Z,20.48
2022-10-31T18:13:39.482Z,21.83
2022-10-31T18:18:44.660Z,22.80
2022-10-31T18:23:48.988Z,21.70
2022-10-31T18:28:53.105Z,22.00
2022-10-31T18:33:58.576Z,23.20
2022-10-31T18:39:03.278Z,35.88
2022-10-31T18:44:07.597Z,27.15
2022-10-31T18:49:12.777Z,39.72
2022-10-31T18:54:16.552Z,35.03
2022-10-31T18:59:20.350Z,34.13
2022-10-31T19:04:25.636Z,45.65
2022-10-31T19:09:31.013Z,44.13
2022-10-31T19:14:34.932Z,48.58
2022-10-31T19:19:40.273Z,65.70
2022-10-31T19:24:44.221Z,70.50
2022-10-31T19:29:48.081Z,65.75
2022-10-31T19:34:54.493Z,92.28
2022-10-31T19:39:58.265Z,97.10
2022-10-31T19:45:02.212Z,90.93
2022-10-31T19:50:08.593Z,84.47
2022-10-31T19:55:15.271Z,77.32
2022-10-31T20:00:19.370Z,68.47
2022-10-31T20:05:24.649Z,66.70
2022-10-31T20:10:28.457Z,60.97
2022-10-31T20:15:32.306Z,62.33
2022-10-31T20:20:37.585Z,60.38
2022-10-31T20:25:48.304Z,50.70
2022-10-31T20:30:52.141Z,42.85
2022-10-31T20:35:57.346Z,39.17
2022-10-31T20:41:02.547Z,38.30
2022-10-31T20:46:08.788Z,40.63
2022-10-31T20:56:26.333Z,42.55
2022-10-31T21:01:31.639Z,42.80
2022-10-31T21:06:37.126Z,38.92
2022-10-31T21:11:41.119Z,36.10
2022-10-31T21:16:45.001Z,37.42
2022-10-31T21:21:50.205Z,37.33
2022-10-31T21:26:54.008Z,26.87
2022-10-31T21:31:57.837Z,34.72
2022-10-31T21:37:03.004Z,33.55
2022-10-31T21:42:07.166Z,32.20
2022-10-31T21:47:10.985Z,30.45
2022-10-31T21:52:16.274Z,30.60
2022-10-31T22:02:28.926Z,30.60
2022-10-31T22:07:34.370Z,28.35
2022-10-31T22:12:39.109Z,28.33
2022-10-31T22:17:42.866Z,29.42
2022-10-31T22:22:49.392Z,28.10
2022-10-31T22:27:53.744Z,27.05
2022-10-31T22:32:57.567Z,25.55
2022-10-31T22:38:02.774Z,24.67
2022-10-31T22:43:06.558Z,24.70
2022-10-31T22:48:10.351Z,23.98
2022-10-31T22:53:15.965Z,24.55
2022-10-31T22:58:19.756Z,25.55
2022-10-31T23:03:23.721Z,26.30
2022-10-31T23:08:30.084Z,25.83
2022-10-31T23:13:51.176Z,27.23
2022-10-31T23:18:54.954Z,27.17
2022-10-31T23:24:00.755Z,26.55
2022-10-31T23:29:04.547Z,25.70
2022-10-31T23:34:08.377Z,25.58
2022-10-31T23:39:13.574Z,25.20
2022-10-31T23:44:17.412Z,24.50
2022-10-31T23:49:21.172Z,24.75
2022-10-31T23:54:27.003Z,25.10
2022-10-31T23:59:30.812Z,24.15
